Time;durP1;ratioP1;P1;durP2;ratioP2;P2;SDS_P1;SDS_P2;PMS_P1;PMS_P2;Temp;Humidity;BMP_temperature;BMP_pressure;BME280_temperature;BME280_humidity;BME280_pressure;Samples;Min_cycle;Max_cycle;Signal;HPM_P1;HPM_P2
2022/11/02 00:02:16;;;;;;;31.40;18.23;;;11.30;99.90;;;;;;5080040;28;21165;-68
2022/11/02 00:04:43;;;;;;;32.70;18.83;;;11.30;99.90;;;;;;5081359;28;20053;-65
2022/11/02 00:07:10;;;;;;;35.40;17.95;;;11.40;99.90;;;;;;5084807;28;20597;-71
2022/11/02 00:09:37;;;;;;;32.53;17.50;;;11.40;99.90;;;;;;5077144;28;20032;-75
2022/11/02 00:12:04;;;;;;;28.63;17.08;;;11.40;99.90;;;;;;5081885;28;20055;-67
2022/11/02 00:14:31;;;;;;;26.67;17.63;;;11.40;99.90;;;;;;5079931;28;20071;-77
2022/11/02 00:16:58;;;;;;;27.58;18.75;;;11.40;99.90;;;;;;5077524;28;21025;-73
2022/11/02 00:19:25;;;;;;;27.38;18.13;;;11.50;99.90;;;;;;5078112;28;20075;-71
2022/11/02 00:21:53;;;;;;;28.35;17.58;;;11.50;99.90;;;;;;5076819;28;20135;-67
2022/11/02 00:24:20;;;;;;;31.17;17.73;;;11.50;99.90;;;;;;5077733;28;21555;-66
2022/11/02 00:26:47;;;;;;;36.67;22.10;;;11.50;99.90;;;;;;5086975;28;20071;-73
2022/11/02 00:29:14;;;;;;;28.30;17.58;;;11.50;99.90;;;;;;5073064;28;20132;-67
2022/11/02 00:31:41;;;;;;;29.50;19.10;;;11.50;99.90;;;;;;5079819;28;20108;-69
2022/11/02 00:34:08;;;;;;;33.97;18.90;;;11.60;99.90;;;;;;5085378;28;20425;-70
2022/11/02 00:36:35;;;;;;;31.35;21.02;;;11.50;99.90;;;;;;5083582;28;20062;-66
2022/11/02 00:39:02;;;;;;;35.38;21.63;;;11.50;99.90;;;;;;5078452;28;20215;-73
2022/11/02 00:41:29;;;;;;;34.40;22.38;;;11.60;99.90;;;;;;5079250;28;20139;-69
2022/11/02 00:43:56;;;;;;;36.13;23.45;;;11.60;99.90;;;;;;5065998;28;20211;-66
2022/11/02 00:46:23;;;;;;;29.15;17.27;;;11.60;99.90;;;;;;5065359;28;20048;-67
2022/11/02 00:48:50;;;;;;;28.40;20.10;;;11.60;99.90;;;;;;5090403;28;20148;-64
2022/11/02 00:51:17;;;;;;;39.97;20.33;;;11.60;99.90;;;;;;5085861;28;20139;-64
2022/11/02 00:53:44;;;;;;;35.50;21.52;;;11.60;99.90;;;;;;5064939;28;20047;-64
2022/11/02 00:56:11;;;;;;;31.60;19.80;;;11.60;99.90;;;;;;5077276;28;20079;-67
2022/11/02 00:58:38;;;;;;;33.50;19.48;;;11.60;99.90;;;;;;5086651;28;20173;-65
2022/11/02 01:01:06;;;;;;;34.97;19.00;;;11.50;99.90;;;;;;5077081;28;20056;-74
2022/11/02 01:03:34;;;;;;;35.33;20.83;;;11.50;99.90;;;;;;5065209;28;20126;-65
2022/11/02 01:06:13;;;;;;;33.10;19.55;;;11.50;99.90;;;;;;5081606;28;20097;-72
2022/11/02 01:08:40;;;;;;;28.67;18.60;;;11.50;99.90;;;;;;5081507;28;20041;-76
2022/11/02 01:11:15;;;;;;;35.08;19.10;;;11.50;99.90;;;;;;5083220;28;20048;-65
2022/11/02 01:13:43;;;;;;;32.42;20.70;;;11.50;99.90;;;;;;5078349;28;20044;-72
2022/11/02 01:16:11;;;;;;;27.17;17.02;;;11.50;99.90;;;;;;5062342;28;20482;-69
2022/11/02 01:18:39;;;;;;;30.77;18.30;;;11.50;99.90;;;;;;5077175;28;20044;-65
2022/11/02 01:21:07;;;;;;;32.72;20.63;;;11.50;99.90;;;;;;5080251;28;20075;-66
2022/11/02 01:23:35;;;;;;;31.40;19.58;;;11.40;99.90;;;;;;5084267;28;20064;-67
2022/11/02 01:26:07;;;;;;;26.10;18.00;;;11.40;99.90;;;;;;5079531;28;20040;-65
2022/11/02 01:28:35;;;;;;;26.30;18.58;;;11.40;99.90;;;;;;5079858;28;20052;-65
2022/11/02 01:31:02;;;;;;;31.90;18.92;;;11.40;99.90;;;;;;5078841;28;20054;-65
2022/11/02 01:33:29;;;;;;;31.90;17.45;;;11.40;99.90;;;;;;5074893;28;20129;-67
2022/11/02 01:35:56;;;;;;;26.48;18.25;;;11.40;99.90;;;;;;5076400;28;20144;-65
2022/11/02 01:38:24;;;;;;;24.85;16.88;;;11.40;99.90;;;;;;5085528;28;20116;-64
2022/11/02 01:40:51;;;;;;;31.73;18.73;;;11.40;99.90;;;;;;5084035;28;20063;-70
2022/11/02 01:43:24;;;;;;;26.95;19.70;;;11.40;99.90;;;;;;5085000;28;20071;-67
2022/11/02 01:45:59;;;;;;;29.73;16.80;;;11.40;99.90;;;;;;5077284;28;20048;-74
2022/11/02 01:48:35;;;;;;;34.38;19.90;;;11.40;99.90;;;;;;5066841;28;20064;-79
2022/11/02 01:51:09;;;;;;;24.48;16.33;;;11.40;99.90;;;;;;5082293;28;20135;-67
2022/11/02 01:53:41;;;;;;;26.83;17.77;;;11.40;99.90;;;;;;5079181;28;20052;-68
2022/11/02 01:56:11;;;;;;;28.92;19.13;;;11.40;99.90;;;;;;5078173;28;20418;-65
2022/11/02 01:58:38;;;;;;;26.63;17.63;;;11.40;99.90;;;;;;5064133;28;20143;-70
2022/11/02 02:01:05;;;;;;;28.83;17.77;;;11.40;99.90;;;;;;5073571;28;20052;-67
2022/11/02 02:03:34;;;;;;;23.13;14.50;;;11.30;99.90;;;;;;5059242;28;20143;-66
2022/11/02 02:06:09;;;;;;;25.83;15.98;;;11.30;99.90;;;;;;5059913;28;20067;-67
2022/11/02 02:08:39;;;;;;;25.15;15.40;;;11.30;99.90;;;;;;5078737;28;20059;-69
2022/11/02 02:11:26;;;;;;;;;;;11.20;99.90;;;;;;5083577;28;20074;-65
2022/11/02 02:13:59;;;;;;;22.55;13.98;;;11.20;99.90;;;;;;5078576;28;20001;-66
2022/11/02 02:16:36;;;;;;;17.85;13.38;;;11.10;99.90;;;;;;5063416;28;20088;-64
2022/11/02 02:19:17;;;;;;;22.20;15.65;;;11.10;99.90;;;;;;5077586;28;20047;-65
2022/11/02 02:22:04;;;;;;;17.77;12.35;;;11.00;99.90;;;;;;5079900;28;20159;-68
2022/11/02 02:24:58;;;;;;;21.38;14.25;;;11.00;99.90;;;;;;5060874;28;20044;-68
2022/11/02 02:27:30;;;;;;;19.13;12.75;;;10.90;99.90;;;;;;5075020;28;20135;-66
2022/11/02 02:30:05;;;;;;;23.17;13.55;;;10.80;99.90;;;;;;5059892;28;20044;-71
2022/11/02 02:33:09;;;;;;;15.93;11.35;;;10.80;99.90;;;;;;5077241;28;20115;-71
2022/11/02 02:36:02;;;;;;;15.38;12.50;;;10.80;99.90;;;;;;5060951;28;20152;-64
2022/11/02 02:38:41;;;;;;;17.33;10.73;;;10.70;99.90;;;;;;5080559;28;20069;-64
2022/11/02 02:41:28;;;;;;;14.05;10.20;;;10.70;99.90;;;;;;5057601;28;20053;-67
2022/11/02 02:43:57;;;;;;;18.08;10.75;;;10.70;99.90;;;;;;5069587;28;20087;-64
2022/11/02 02:47:10;;;;;;;15.65;11.05;;;10.60;99.90;;;;;;5085171;28;20146;-76
2022/11/02 02:49:54;;;;;;;16.60;10.77;;;10.60;99.90;;;;;;5025249;28;20069;-72
2022/11/02 02:52:24;;;;;;;15.75;11.30;;;10.60;99.90;;;;;;5075234;28;20483;-69
2022/11/02 02:54:54;;;;;;;;;;;10.50;99.90;;;;;;5058621;28;20505;-69
2022/11/02 02:57:25;;;;;;;14.77;10.10;;;10.50;99.90;;;;;;5076635;28;20008;-65
2022/11/02 02:59:53;;;;;;;17.50;10.88;;;10.50;99.90;;;;;;5075463;28;20043;-68
2022/11/02 03:02:26;;;;;;;14.82;10.30;;;10.50;99.90;;;;;;5072206;28;20083;-73
2022/11/02 03:04:53;;;;;;;15.85;10.00;;;10.50;99.90;;;;;;5075106;28;20063;-64
2022/11/02 03:07:25;;;;;;;17.58;10.57;;;10.50;99.90;;;;;;5056931;28;20088;-72
2022/11/02 03:10:05;;;;;;;18.98;9.48;;;10.30;99.90;;;;;;5058613;28;20063;-68
2022/11/02 03:12:59;;;;;;;12.00;8.65;;;10.30;99.90;;;;;;5072847;28;20048;-67
2022/11/02 03:15:39;;;;;;;14.85;9.43;;;10.20;99.90;;;;;;5079963;28;20048;-69
2022/11/02 03:18:13;;;;;;;13.25;9.95;;;10.10;99.90;;;;;;5076877;28;20215;-72
2022/11/02 03:20:53;;;;;;;14.48;9.07;;;10.00;99.90;;;;;;5073221;28;20040;-72
2022/11/02 03:23:38;;;;;;;12.95;9.75;;;9.90;99.90;;;;;;5059963;28;20060;-70
2022/11/02 03:26:12;;;;;;;14.15;9.18;;;9.90;99.90;;;;;;5075582;28;20044;-77
2022/11/02 03:28:48;;;;;;;15.50;10.52;;;9.80;99.90;;;;;;5060341;28;20403;-68
2022/11/02 03:31:33;;;;;;;14.85;9.45;;;9.70;99.90;;;;;;5059944;28;20052;-69
2022/11/02 03:34:06;;;;;;;20.55;11.23;;;9.70;99.90;;;;;;5058942;28;20395;-76
2022/11/02 03:36:45;;;;;;;17.38;10.18;;;9.70;99.90;;;;;;5074361;28;20048;-72
2022/11/02 03:39:17;;;;;;;15.07;9.50;;;9.80;99.90;;;;;;5053020;28;20044;-65
2022/11/02 03:41:46;;;;;;;18.38;11.95;;;9.80;99.90;;;;;;5061072;28;20048;-66
2022/11/02 03:44:19;;;;;;;11.40;9.45;;;9.70;99.90;;;;;;5072024;28;20048;-67
2022/11/02 03:46:50;;;;;;;18.63;9.80;;;9.70;99.90;;;;;;5074925;28;20052;-68
2022/11/02 03:49:20;;;;;;;14.32;8.88;;;9.70;99.90;;;;;;5074831;28;20497;-73
2022/11/02 03:51:49;;;;;;;18.10;11.00;;;9.60;99.90;;;;;;5063237;28;20110;-65
2022/11/02 03:54:40;;;;;;;18.67;9.55;;;9.60;99.90;;;;;;5061367;28;20051;-64
2022/11/02 03:57:09;;;;;;;15.45;10.20;;;9.60;99.90;;;;;;5062044;28;20133;-64
2022/11/02 03:59:36;;;;;;;14.60;10.27;;;9.50;99.90;;;;;;5060440;28;20064;-64
2022/11/02 04:02:03;;;;;;;14.05;8.85;;;9.50;99.90;;;;;;5081344;28;20051;-69
2022/11/02 04:04:31;;;;;;;16.08;9.90;;;9.40;99.90;;;;;;5083043;28;20044;-72
2022/11/02 04:06:58;;;;;;;15.52;10.25;;;9.40;99.90;;;;;;5052741;28;20121;-74
2022/11/02 04:09:25;;;;;;;16.58;9.85;;;9.40;99.90;;;;;;5077533;28;20375;-65
2022/11/02 04:14:38;;;;;;;10.25;7.70;;;9.30;99.90;;;;;;5064523;28;20047;-66
2022/11/02 04:19:59;;;;;;;18.25;9.38;;;9.30;99.90;;;;;;5056939;28;20189;-66
2022/11/02 04:25:17;;;;;;;10.90;8.07;;;9.20;99.90;;;;;;5077055;28;20051;-65
2022/11/02 04:28:08;;;;;;;12.27;9.32;;;9.20;99.90;;;;;;5063853;28;20059;-69
2022/11/02 04:30:40;;;;;;;13.88;8.27;;;9.10;99.90;;;;;;5065358;28;20122;-66
2022/11/02 04:36:04;;;;;;;20.48;9.43;;;9.10;99.90;;;;;;5064295;28;20620;-73
2022/11/02 04:38:41;;;;;;;14.57;7.53;;;9.10;99.90;;;;;;5077419;28;20646;-73
2022/11/02 04:41:40;;;;;;;15.35;9.60;;;9.00;99.90;;;;;;5071698;28;20118;-67
2022/11/02 04:44:13;;;;;;;9.00;8.02;;;9.10;99.90;;;;;;5044407;28;20141;-72
2022/11/02 04:46:43;;;;;;;13.45;9.25;;;9.10;99.90;;;;;;5061558;28;20502;-73
2022/11/02 04:49:13;;;;;;;10.73;8.55;;;9.00;99.90;;;;;;5079321;28;20048;-69
2022/11/02 04:51:40;;;;;;;10.80;8.50;;;9.00;99.90;;;;;;5064059;28;20048;-71
2022/11/02 04:54:16;;;;;;;14.27;9.32;;;9.00;99.90;;;;;;5080130;28;20048;-68
2022/11/02 04:56:44;;;;;;;16.23;8.82;;;9.10;99.90;;;;;;5061595;28;20122;-71
2022/11/02 04:59:12;;;;;;;13.25;7.78;;;9.00;99.90;;;;;;5061443;28;20044;-68
2022/11/02 05:01:39;;;;;;;11.52;8.95;;;9.00;99.90;;;;;;5066843;28;20059;-72
2022/11/02 05:04:09;;;;;;;16.30;9.40;;;9.00;99.90;;;;;;5059567;28;21045;-65
2022/11/02 05:06:36;;;;;;;12.23;9.82;;;9.00;99.90;;;;;;5077212;28;20070;-64
2022/11/02 05:09:03;;;;;;;13.68;9.40;;;9.00;99.90;;;;;;5079684;28;20044;-75
2022/11/02 05:11:32;;;;;;;14.25;8.05;;;9.00;99.90;;;;;;5063518;28;20494;-70
2022/11/02 05:13:59;;;;;;;13.13;9.43;;;9.00;99.90;;;;;;5062102;28;20066;-70
2022/11/02 05:16:27;;;;;;;12.45;8.48;;;9.00;99.90;;;;;;5067617;28;20489;-70
2022/11/02 05:18:54;;;;;;;11.30;8.80;;;8.90;99.90;;;;;;5062595;28;20054;-82
2022/11/02 05:21:23;;;;;;;15.25;8.98;;;8.90;99.90;;;;;;5060527;28;20047;-67
2022/11/02 05:23:52;;;;;;;12.40;8.32;;;8.90;99.90;;;;;;5076476;28;20056;-77
2022/11/02 05:26:19;;;;;;;16.23;10.45;;;8.80;99.90;;;;;;5076553;28;20690;-71
2022/11/02 05:28:50;;;;;;;16.80;9.57;;;8.80;99.90;;;;;;5061970;28;20074;-68
2022/11/02 05:31:17;;;;;;;17.23;9.90;;;8.80;99.90;;;;;;5082220;28;20094;-75
2022/11/02 05:33:44;;;;;;;15.90;8.65;;;8.80;99.90;;;;;;5078881;28;20054;-75
2022/11/02 05:36:15;;;;;;;12.32;7.88;;;8.70;99.90;;;;;;5061498;28;20048;-68
2022/11/02 05:38:46;;;;;;;15.77;9.57;;;8.70;99.90;;;;;;5077351;28;20043;-71
2022/11/02 05:41:13;;;;;;;12.65;8.88;;;8.70;99.90;;;;;;5060369;28;20052;-71
2022/11/02 05:43:41;;;;;;;15.70;9.45;;;8.70;99.90;;;;;;5064693;28;20048;-73
2022/11/02 05:46:13;;;;;;;16.88;10.18;;;8.70;99.90;;;;;;5073014;28;20964;-67
2022/11/02 05:48:41;;;;;;;13.80;8.77;;;8.80;99.90;;;;;;5081807;28;20151;-70
2022/11/02 05:51:08;;;;;;;13.43;8.82;;;8.80;99.90;;;;;;5075324;28;20301;-66
2022/11/02 05:53:37;;;;;;;14.80;8.13;;;8.80;99.90;;;;;;5080585;28;20147;-65
2022/11/02 05:56:06;;;;;;;15.57;10.40;;;8.70;99.90;;;;;;5078152;28;20528;-69
2022/11/02 05:58:36;;;;;;;16.15;9.32;;;8.70;99.90;;;;;;5080199;28;20048;-72
2022/11/02 06:01:07;;;;;;;16.90;9.75;;;8.70;99.90;;;;;;5064293;28;20582;-66
2022/11/02 06:03:35;;;;;;;16.48;10.07;;;8.70;99.90;;;;;;5080678;28;20048;-68
2022/11/02 06:06:08;;;;;;;19.83;10.10;;;8.60;99.90;;;;;;5078688;28;20049;-66
2022/11/02 06:08:36;;;;;;;;;;;8.60;99.90;;;;;;5077040;28;20071;-67
2022/11/02 06:11:08;;;;;;;17.00;10.23;;;8.60;99.90;;;;;;5076656;28;19924;-67
2022/11/02 06:13:36;;;;;;;15.57;11.15;;;8.50;99.90;;;;;;5072250;28;20079;-75
2022/11/02 06:16:05;;;;;;;14.15;10.20;;;8.50;99.90;;;;;;5077597;28;20040;-66
2022/11/02 06:18:32;;;;;;;13.80;10.48;;;8.50;99.90;;;;;;5074010;28;20135;-76
2022/11/02 06:20:59;;;;;;;14.38;11.30;;;8.50;99.90;;;;;;5081174;28;20475;-73
2022/11/02 06:23:27;;;;;;;20.13;11.88;;;8.50;99.90;;;;;;5083059;28;20559;-67
2022/11/02 06:25:57;;;;;;;18.98;11.95;;;8.50;99.90;;;;;;5072282;28;20909;-71
2022/11/02 06:28:24;;;;;;;21.10;12.55;;;8.50;99.90;;;;;;5083096;28;20146;-74
2022/11/02 06:30:52;;;;;;;24.13;12.48;;;8.70;99.90;;;;;;5063392;28;20047;-67
2022/11/02 06:33:19;;;;;;;20.30;11.77;;;8.70;99.90;;;;;;5073922;28;20084;-68
2022/11/02 06:35:48;;;;;;;19.38;12.43;;;8.80;99.90;;;;;;5082010;28;20044;-68
2022/11/02 06:38:15;;;;;;;18.83;12.05;;;8.80;99.90;;;;;;5080535;28;20062;-66
2022/11/02 06:40:42;;;;;;;16.63;12.32;;;8.80;99.90;;;;;;5074029;28;20048;-72
2022/11/02 06:43:11;;;;;;;18.42;13.38;;;8.90;99.90;;;;;;5076484;28;20505;-67
2022/11/02 06:45:42;;;;;;;19.58;12.98;;;9.00;99.90;;;;;;5080299;28;20036;-67
2022/11/02 06:48:09;;;;;;;23.83;15.07;;;9.10;99.90;;;;;;5067787;28;20067;-70
2022/11/02 06:50:36;;;;;;;20.15;14.10;;;9.10;99.90;;;;;;5075263;28;20139;-67
2022/11/02 06:53:03;;;;;;;22.90;15.75;;;9.10;99.90;;;;;;5083764;28;20048;-69
2022/11/02 06:55:30;;;;;;;26.42;16.70;;;9.20;99.90;;;;;;5081880;28;20051;-72
2022/11/02 06:57:57;;;;;;;25.23;13.77;;;9.20;99.90;;;;;;5076066;28;20047;-67
2022/11/02 07:00:24;;;;;;;27.55;16.40;;;9.20;99.90;;;;;;5079045;28;20452;-67
2022/11/02 07:03:03;;;;;;;22.25;13.70;;;9.30;99.90;;;;;;5083380;28;20730;-66
2022/11/02 07:05:31;;;;;;;24.17;14.63;;;9.30;99.90;;;;;;5083155;28;20143;-69
2022/11/02 07:07:58;;;;;;;19.52;15.18;;;9.40;99.90;;;;;;5070624;28;20127;-77
2022/11/02 07:10:26;;;;;;;22.63;15.18;;;9.40;99.90;;;;;;5071125;28;20051;-66
2022/11/02 07:12:54;;;;;;;36.13;17.52;;;9.40;99.90;;;;;;5083116;28;20043;-68
2022/11/02 07:15:22;;;;;;;26.77;15.30;;;9.50;99.90;;;;;;5080406;28;20044;-79
2022/11/02 07:17:51;;;;;;;27.13;17.48;;;9.60;99.90;;;;;;5085378;28;20100;-65
2022/11/02 07:20:19;;;;;;;25.55;17.63;;;9.60;99.90;;;;;;5072687;28;20063;-73
2022/11/02 07:22:59;;;;;;;35.60;17.35;;;9.70;99.90;;;;;;5067788;28;20417;-69
2022/11/02 07:25:29;;;;;;;30.67;19.65;;;9.80;99.90;;;;;;5080752;28;20097;-72
2022/11/02 07:27:58;;;;;;;29.33;18.77;;;9.90;99.90;;;;;;5069971;28;20049;-75
2022/11/02 07:30:26;;;;;;;34.67;18.63;;;10.00;99.90;;;;;;5080542;28;20047;-64
2022/11/02 07:32:54;;;;;;;30.45;19.67;;;10.10;99.90;;;;;;5070164;28;20192;-70
2022/11/02 07:35:21;;;;;;;35.97;20.13;;;10.10;99.90;;;;;;5066966;28;20052;-71
2022/11/02 07:37:55;;;;;;;35.28;20.33;;;10.10;99.90;;;;;;5076926;28;20056;-66
2022/11/02 07:40:23;;;;;;;30.60;19.52;;;10.10;99.90;;;;;;5080354;28;20056;-66
2022/11/02 07:42:52;;;;;;;35.05;19.63;;;10.20;99.90;;;;;;5082258;28;20054;-66
2022/11/02 07:45:28;;;;;;;37.38;21.65;;;10.10;99.90;;;;;;5064760;28;20051;-68
2022/11/02 07:47:55;;;;;;;33.85;19.90;;;10.20;99.90;;;;;;5073801;28;20834;-68
2022/11/02 07:50:24;;;;;;;38.97;21.75;;;10.20;99.90;;;;;;5063292;28;20134;-65
2022/11/02 07:52:52;;;;;;;29.08;20.58;;;10.30;99.90;;;;;;5075777;28;20072;-64
2022/11/02 07:55:25;;;;;;;40.97;20.80;;;10.30;99.90;;;;;;5072624;28;20055;-65
2022/11/02 07:57:54;;;;;;;43.67;21.52;;;10.40;99.90;;;;;;5063262;28;20467;-65
2022/11/02 08:00:22;;;;;;;32.97;18.95;;;10.40;99.90;;;;;;5080247;28;20047;-68
2022/11/02 08:02:54;;;;;;;30.83;19.02;;;10.40;99.90;;;;;;5083058;28;20461;-65
2022/11/02 08:05:21;;;;;;;30.50;17.65;;;10.50;99.90;;;;;;5077932;28;20091;-67
2022/11/02 08:07:56;;;;;;;32.00;19.63;;;10.50;99.90;;;;;;5084203;28;20130;-69
2022/11/02 08:10:23;;;;;;;35.67;19.02;;;10.50;99.90;;;;;;5081630;28;20052;-64
2022/11/02 08:12:50;;;;;;;40.03;23.17;;;10.60;99.90;;;;;;5082055;28;20040;-71
2022/11/02 08:15:17;;;;;;;39.55;19.95;;;10.60;99.90;;;;;;5077429;28;20040;-71
2022/11/02 08:17:44;;;;;;;39.08;20.77;;;10.70;99.90;;;;;;5081170;28;20051;-72
2022/11/02 08:20:11;;;;;;;38.47;22.17;;;10.70;99.90;;;;;;5064959;28;20809;-68
2022/11/02 08:22:39;;;;;;;34.80;21.25;;;10.80;99.90;;;;;;5080849;28;20052;-76
2022/11/02 08:25:07;;;;;;;42.33;19.92;;;10.80;99.90;;;;;;5080406;28;20058;-70
2022/11/02 08:27:34;;;;;;;34.75;20.58;;;10.90;99.90;;;;;;5083576;28;20078;-65
2022/11/02 08:30:01;;;;;;;36.25;20.40;;;10.90;99.90;;;;;;5078594;28;20185;-76
2022/11/02 08:32:28;;;;;;;34.95;20.80;;;11.00;99.90;;;;;;5077040;28;20463;-69
2022/11/02 08:34:55;;;;;;;50.90;23.20;;;11.00;99.90;;;;;;5074042;28;20060;-64
2022/11/02 08:37:21;;;;;;;39.28;20.58;;;11.00;99.90;;;;;;5070202;28;20075;-73
2022/11/02 08:39:48;;;;;;;43.08;19.75;;;11.10;99.90;;;;;;5075211;28;20148;-67
2022/11/02 08:42:15;;;;;;;39.67;19.92;;;11.10;99.90;;;;;;5067562;28;20454;-66
2022/11/02 08:44:42;;;;;;;34.33;16.20;;;11.10;99.90;;;;;;5074966;28;20048;-74
2022/11/02 08:47:09;;;;;;;28.30;18.27;;;11.20;99.90;;;;;;5085826;28;20420;-64
2022/11/02 08:49:36;;;;;;;38.22;20.67;;;11.20;99.90;;;;;;5084312;28;20046;-68
2022/11/02 08:52:03;;;;;;;34.20;17.27;;;11.20;99.90;;;;;;5079840;28;20044;-70
2022/11/02 08:54:30;;;;;;;37.33;18.65;;;11.30;99.90;;;;;;5081505;28;20131;-64
2022/11/02 08:56:57;;;;;;;34.80;19.48;;;11.30;99.90;;;;;;5082813;28;20517;-65
2022/11/02 08:59:24;;;;;;;27.40;17.40;;;11.40;99.90;;;;;;5074466;28;20105;-71
2022/11/02 09:01:51;;;;;;;24.70;14.18;;;11.40;99.90;;;;;;5084636;28;20056;-74
2022/11/02 09:04:18;;;;;;;28.52;15.80;;;11.50;99.90;;;;;;5075169;28;20075;-64
2022/11/02 09:06:45;;;;;;;30.55;17.60;;;11.50;99.90;;;;;;5090531;28;20547;-67
2022/11/02 09:09:12;;;;;;;23.63;14.23;;;11.60;99.90;;;;;;5084920;28;20040;-64
2022/11/02 09:11:39;;;;;;;28.42;15.48;;;11.60;99.90;;;;;;5080015;28;20433;-64
2022/11/02 09:14:06;;;;;;;22.65;14.27;;;11.60;99.90;;;;;;5086066;28;20123;-73
2022/11/02 09:16:34;;;;;;;26.15;14.02;;;11.70;99.90;;;;;;5090935;28;20116;-68
2022/11/02 09:19:07;;;;;;;32.70;15.63;;;11.70;99.90;;;;;;5082530;28;20044;-65
2022/11/02 09:21:33;;;;;;;27.50;15.50;;;11.80;99.90;;;;;;5082758;28;20073;-67
2022/11/02 09:24:00;;;;;;;23.65;15.70;;;11.90;99.90;;;;;;5088063;28;20060;-70
2022/11/02 09:26:27;;;;;;;30.88;15.05;;;11.90;99.90;;;;;;5089369;28;20061;-64
2022/11/02 09:28:54;;;;;;;26.85;13.95;;;11.90;99.90;;;;;;5085893;28;20131;-68
2022/11/02 09:31:21;;;;;;;26.60;13.95;;;11.90;99.90;;;;;;5083995;28;20494;-64
2022/11/02 09:33:48;;;;;;;29.02;16.65;;;11.90;99.90;;;;;;5082810;28;20482;-72
2022/11/02 09:36:15;;;;;;;26.15;15.15;;;11.90;99.90;;;;;;5066081;28;20075;-69
2022/11/02 09:38:42;;;;;;;22.15;13.32;;;11.90;99.90;;;;;;5080600;28;20098;-66
2022/11/02 09:41:38;;;;;;;24.88;15.05;;;11.90;99.90;;;;;;5087095;28;20142;-66
2022/11/02 09:44:12;;;;;;;21.67;13.48;;;11.90;99.90;;;;;;5082947;28;20086;-68
2022/11/02 09:46:41;;;;;;;28.05;15.80;;;11.90;99.90;;;;;;5089296;28;20036;-65
2022/11/02 09:49:17;;;;;;;27.40;12.57;;;11.90;99.90;;;;;;5085611;28;20367;-69
2022/11/02 09:51:53;;;;;;;27.33;12.15;;;11.90;99.90;;;;;;5084790;28;20040;-65
2022/11/02 09:54:44;;;;;;;29.55;13.05;;;11.90;99.90;;;;;;5085603;28;20044;-65
2022/11/02 09:57:19;;;;;;;26.70;10.95;;;12.00;99.90;;;;;;5086719;28;20498;-75
2022/11/02 09:59:46;;;;;;;25.27;9.52;;;12.00;99.90;;;;;;5089668;28;20066;-69
2022/11/02 10:02:51;;;;;;;29.25;10.27;;;12.00;99.90;;;;;;5082804;28;20410;-67
2022/11/02 10:05:18;;;;;;;21.33;8.88;;;12.00;99.90;;;;;;5024064;28;20401;-70
2022/11/02 10:08:06;;;;;;;18.27;8.23;;;12.10;99.90;;;;;;5081101;28;20040;-68
2022/11/02 10:10:51;;;;;;;25.50;9.15;;;12.10;99.90;;;;;;5085276;28;20702;-69
2022/11/02 10:13:36;;;;;;;18.73;7.65;;;12.10;99.90;;;;;;5080902;28;20051;-69
2022/11/02 10:16:16;;;;;;;17.25;6.70;;;12.20;99.90;;;;;;5075567;28;20045;-71
2022/11/02 10:18:48;;;;;;;18.47;6.23;;;12.20;99.90;;;;;;5079633;28;20044;-68
2022/11/02 10:21:20;;;;;;;15.57;6.45;;;12.30;99.90;;;;;;5067593;28;20080;-64
2022/11/02 10:23:51;;;;;;;13.23;6.22;;;12.30;99.90;;;;;;5082694;28;20397;-66
2022/11/02 10:26:32;;;;;;;16.10;5.97;;;12.30;99.90;;;;;;5063846;28;20150;-64
2022/11/02 10:29:32;;;;;;;13.82;4.65;;;12.30;99.90;;;;;;5085323;28;20486;-66
2022/11/02 10:32:01;;;;;;;15.80;5.65;;;12.40;99.90;;;;;;5077893;28;20048;-65
2022/11/02 10:34:29;;;;;;;13.25;5.50;;;12.40;99.90;;;;;;5085447;28;20062;-65
2022/11/02 10:37:02;;;;;;;10.57;5.40;;;12.50;99.90;;;;;;5078325;28;20052;-64
2022/11/02 10:39:39;;;;;;;20.17;4.60;;;12.50;99.90;;;;;;5080770;28;20131;-65
2022/11/02 10:42:25;;;;;;;15.68;5.95;;;12.60;99.90;;;;;;5085406;28;20434;-64
2022/11/02 10:45:30;;;;;;;15.70;6.28;;;12.60;99.90;;;;;;5086044;28;20094;-64
2022/11/02 10:48:20;;;;;;;11.35;4.53;;;12.70;99.90;;;;;;5078081;28;20146;-68
2022/11/02 10:50:56;;;;;;;17.05;5.70;;;12.70;99.90;;;;;;5079694;28;20496;-68
2022/11/02 10:53:23;;;;;;;15.13;4.85;;;12.80;99.90;;;;;;5082921;28;20043;-64
2022/11/02 10:56:15;;;;;;;18.52;5.47;;;12.70;99.90;;;;;;5082464;28;20150;-77
2022/11/02 10:59:03;;;;;;;16.77;4.40;;;12.80;99.90;;;;;;5081905;28;20467;-65
2022/11/02 11:01:31;;;;;;;13.18;5.55;;;12.80;99.90;;;;;;5082147;28;20083;-64
2022/11/02 11:04:04;;;;;;;19.52;4.30;;;12.80;99.90;;;;;;5072813;28;20063;-65
2022/11/02 11:06:42;;;;;;;14.05;4.35;;;12.80;99.90;;;;;;5076330;28;20135;-64
2022/11/02 11:09:29;;;;;;;15.63;5.22;;;12.90;99.90;;;;;;5076939;28;20044;-67
2022/11/02 11:12:05;;;;;;;19.95;4.32;;;12.90;99.90;;;;;;5076281;28;20121;-65
2022/11/02 11:14:47;;;;;;;18.20;4.60;;;13.00;99.90;;;;;;5086620;28;20126;-64
2022/11/02 11:17:37;;;;;;;14.70;3.92;;;13.00;99.90;;;;;;5083483;28;20051;-67
2022/11/02 11:20:37;;;;;;;22.25;4.15;;;13.10;99.90;;;;;;5087610;28;20090;-66
2022/11/02 11:23:15;;;;;;;17.63;3.40;;;13.10;99.90;;;;;;5086549;28;20047;-66
2022/11/02 11:25:52;;;;;;;9.30;3.30;;;13.10;99.90;;;;;;5071697;28;20387;-65
2022/11/02 11:28:31;;;;;;;15.15;3.20;;;13.10;99.90;;;;;;5081528;28;20047;-65
2022/11/02 11:31:05;;;;;;;9.85;3.92;;;13.10;99.90;;;;;;5087466;28;20039;-70
2022/11/02 11:33:41;;;;;;;9.80;3.55;;;13.10;99.90;;;;;;5084356;28;20135;-64
2022/11/02 11:36:10;;;;;;;10.45;3.00;;;13.10;99.90;;;;;;5069174;28;20040;-66
2022/11/02 11:38:46;;;;;;;9.15;2.40;;;13.10;99.90;;;;;;5074518;28;20041;-64
2022/11/02 11:41:13;;;;;;;14.93;3.45;;;13.10;99.90;;;;;;5084896;28;20056;-64
2022/11/02 11:43:41;;;;;;;9.77;3.08;;;13.10;99.90;;;;;;5074589;28;20481;-66
2022/11/02 11:46:12;;;;;;;6.22;2.67;;;13.00;99.90;;;;;;5086532;28;20523;-68
2022/11/02 11:48:51;;;;;;;11.48;2.92;;;13.10;99.90;;;;;;5087876;28;20040;-68
2022/11/02 11:51:29;;;;;;;8.57;3.65;;;13.00;99.90;;;;;;5078774;28;20064;-65
2022/11/02 11:54:22;;;;;;;14.65;3.75;;;13.00;99.90;;;;;;5085741;28;20109;-69
2022/11/02 11:56:51;;;;;;;22.42;4.30;;;13.00;99.90;;;;;;5092628;28;21174;-65
2022/11/02 11:59:42;;;;;;;12.87;3.73;;;12.90;99.90;;;;;;5063907;28;20056;-64
2022/11/02 12:02:32;;;;;;;14.02;3.70;;;13.00;99.90;;;;;;5077544;28;20063;-65
2022/11/02 12:05:17;;;;;;;17.83;5.53;;;13.10;99.90;;;;;;5070280;28;20477;-65
2022/11/02 12:08:16;;;;;;;9.82;2.95;;;13.20;99.90;;;;;;5084773;28;20143;-64
2022/11/02 12:10:57;;;;;;;8.70;2.78;;;13.30;99.90;;;;;;5080770;28;20139;-77
2022/11/02 12:13:42;;;;;;;12.57;3.10;;;13.40;99.90;;;;;;5085022;28;20044;-72
2022/11/02 12:16:22;;;;;;;7.68;2.83;;;13.40;99.90;;;;;;5083632;28;20052;-64
2022/11/02 12:18:52;;;;;;;19.33;5.28;;;13.50;99.90;;;;;;5086913;28;20135;-64
2022/11/02 12:21:22;;;;;;;12.35;3.22;;;13.60;99.90;;;;;;5093358;28;20082;-68
2022/11/02 12:23:58;;;;;;;9.77;2.75;;;13.70;99.90;;;;;;5091034;28;20052;-67
2022/11/02 12:26:38;;;;;;;9.73;3.45;;;13.70;99.90;;;;;;5087680;28;20044;-67
2022/11/02 12:29:20;;;;;;;7.32;2.22;;;13.70;99.90;;;;;;5084124;28;20110;-64
2022/11/02 12:32:19;;;;;;;9.30;1.83;;;13.70;99.90;;;;;;5091188;28;20049;-77
2022/11/02 12:35:14;;;;;;;3.97;2.47;;;13.70;99.90;;;;;;5085220;28;20129;-64
2022/11/02 12:38:04;;;;;;;10.85;2.47;;;13.70;99.90;;;;;;5080269;28;20128;-65
2022/11/02 12:40:52;;;;;;;10.18;3.20;;;13.70;99.90;;;;;;5086581;28;20047;-64
2022/11/02 12:43:19;;;;;;;14.63;3.67;;;13.70;99.90;;;;;;5091065;28;20156;-78
2022/11/02 12:46:00;;;;;;;9.27;2.42;;;13.70;99.90;;;;;;5079181;28;20043;-65
2022/11/02 12:49:07;;;;;;;14.27;3.60;;;13.70;99.90;;;;;;5084799;28;20071;-64
2022/11/02 12:51:42;;;;;;;7.90;2.30;;;13.70;99.90;;;;;;5089248;28;20082;-65
2022/11/02 12:54:12;;;;;;;9.82;2.33;;;13.70;99.90;;;;;;5081600;28;20565;-74
2022/11/02 12:56:47;;;;;;;5.72;2.60;;;13.70;99.90;;;;;;5079528;28;20067;-64
2022/11/02 12:59:22;;;;;;;7.75;2.38;;;13.70;99.90;;;;;;5088776;28;20073;-64
2022/11/02 13:01:54;;;;;;;13.50;5.88;;;13.60;99.90;;;;;;5088398;28;20048;-65
2022/11/02 13:04:27;;;;;;;11.48;2.17;;;13.60;99.90;;;;;;5080794;28;20044;-69
2022/11/02 13:07:08;;;;;;;4.65;1.40;;;13.60;99.90;;;;;;5089801;28;20098;-68
2022/11/02 13:10:03;;;;;;;6.63;2.10;;;13.50;99.90;;;;;;5084939;28;20048;-67
2022/11/02 13:12:35;;;;;;;5.05;1.48;;;13.50;99.90;;;;;;5086607;28;20074;-69
2022/11/02 13:15:03;;;;;;;5.95;2.33;;;13.40;99.90;;;;;;5080627;28;20078;-69
2022/11/02 13:17:39;;;;;;;14.35;2.25;;;13.40;99.90;;;;;;5080795;28;20057;-65